createdAt,value
2018-07-17T00:01:53.439Z,99.90
2018-07-17T00:04:21.873Z,99.90
2018-07-17T00:06:50.287Z,99.90
2018-07-17T00:09:18.690Z,99.90
2018-07-17T00:11:47.043Z,99.90
2018-07-17T00:14:15.461Z,99.90
2018-07-17T00:16:43.794Z,99.90
2018-07-17T00:19:12.184Z,99.90
2018-07-17T00:21:40.540Z,99.90
2018-07-17T00:24:08.902Z,99.90
2018-07-17T00:26:37.329Z,99.90
2018-07-17T00:29:05.789Z,99.90
2018-07-17T00:31:34.239Z,99.90
2018-07-17T00:34:02.608Z,99.90
2018-07-17T00:36:31.006Z,99.90
2018-07-17T00:38:59.363Z,99.90
2018-07-17T00:41:27.746Z,99.90
2018-07-17T00:43:56.149Z,99.90
2018-07-17T00:46:24.533Z,99.90
2018-07-17T00:48:52.905Z,99.90
2018-07-17T00:51:21.279Z,99.90
2018-07-17T00:53:49.615Z,99.90
2018-07-17T00:56:17.960Z,99.90
2018-07-17T00:58:46.302Z,99.90
2018-07-17T01:01:20.051Z,99.90
2018-07-17T01:06:41.826Z,99.90
2018-07-17T01:09:15.424Z,99.90
2018-07-17T01:11:49.063Z,99.90
2018-07-17T01:14:24.561Z,99.90
2018-07-17T01:16:52.963Z,99.90
2018-07-17T01:19:21.331Z,99.90
2018-07-17T01:21:49.655Z,99.90
2018-07-17T01:24:17.996Z,99.90
2018-07-17T01:32:32.648Z,99.90
2018-07-17T01:37:54.235Z,99.90
2018-07-17T01:40:22.655Z,99.90
2018-07-17T01:42:51.065Z,99.90
2018-07-17T01:45:19.379Z,99.90
2018-07-17T01:47:47.733Z,99.90
2018-07-17T01:50:16.111Z,99.90
2018-07-17T01:52:44.451Z,99.90
2018-07-17T01:55:12.847Z,99.90
2018-07-17T01:57:41.279Z,99.90
2018-07-17T02:00:09.623Z,99.90
2018-07-17T02:02:38.003Z,99.90
2018-07-17T02:05:06.603Z,99.90
2018-07-17T02:07:34.996Z,99.90
2018-07-17T02:10:03.538Z,99.90
2018-07-17T02:12:31.943Z,99.90
2018-07-17T02:15:00.357Z,99.90
2018-07-17T02:17:28.851Z,99.90
2018-07-17T02:19:57.179Z,99.90
2018-07-17T02:22:25.639Z,99.90
2018-07-17T02:24:54.078Z,99.90
2018-07-17T02:27:22.430Z,99.90
2018-07-17T02:29:50.770Z,99.90
2018-07-17T02:32:19.184Z,99.90
2018-07-17T02:34:47.540Z,99.90
2018-07-17T02:37:15.855Z,99.90
2018-07-17T02:39:44.176Z,99.90
2018-07-17T02:47:08.844Z,99.90
2018-07-17T02:49:37.244Z,99.90
2018-07-17T02:52:06.406Z,99.90
2018-07-17T02:54:34.768Z,99.90
2018-07-17T02:59:31.158Z,99.90
2018-07-17T03:01:59.491Z,99.90
2018-07-17T03:04:27.845Z,99.90
2018-07-17T03:06:56.306Z,99.90
2018-07-17T03:09:24.567Z,99.90
2018-07-17T03:11:52.877Z,99.90
2018-07-17T03:14:21.175Z,99.90
2018-07-17T03:16:49.505Z,99.90
2018-07-17T03:19:17.851Z,99.90
2018-07-17T03:21:46.216Z,99.90
2018-07-17T03:24:14.736Z,99.90
2018-07-17T03:26:43.112Z,99.90
2018-07-17T03:29:11.476Z,99.90
2018-07-17T03:31:39.936Z,99.90
2018-07-17T03:34:08.538Z,99.90
2018-07-17T03:36:37.114Z,99.90
2018-07-17T03:39:07.019Z,99.90
2018-07-17T03:41:35.419Z,99.90
2018-07-17T03:44:03.794Z,99.90
2018-07-17T03:46:32.207Z,99.90
2018-07-17T03:49:00.797Z,99.90
2018-07-17T03:51:29.211Z,99.90
2018-07-17T03:53:57.522Z,99.90
2018-07-17T03:56:25.903Z,99.90
2018-07-17T03:58:54.308Z,99.90
2018-07-17T04:01:22.754Z,99.90
2018-07-17T04:03:51.219Z,99.90
2018-07-17T04:06:19.636Z,99.90
2018-07-17T04:08:48.140Z,99.90
2018-07-17T04:11:16.507Z,99.90
2018-07-17T04:13:44.892Z,99.90
2018-07-17T04:16:13.348Z,99.90
2018-07-17T04:18:41.837Z,99.90
2018-07-17T04:21:10.396Z,99.90
2018-07-17T04:23:38.930Z,99.90
2018-07-17T04:26:07.339Z,99.90
2018-07-17T04:28:35.790Z,99.90
2018-07-17T04:31:04.172Z,99.90
2018-07-17T04:33:32.790Z,99.90
2018-07-17T04:36:01.188Z,99.90
2018-07-17T04:38:29.670Z,99.90
2018-07-17T04:40:57.994Z,99.90
2018-07-17T04:43:26.393Z,99.90
2018-07-17T04:45:54.771Z,99.90
2018-07-17T04:48:23.186Z,99.90
2018-07-17T04:50:51.682Z,99.90
2018-07-17T04:53:20.082Z,99.90
2018-07-17T04:55:48.489Z,99.90
2018-07-17T04:58:16.952Z,99.90
2018-07-17T05:00:47.517Z,99.90
2018-07-17T05:03:16.030Z,99.90
2018-07-17T05:05:44.382Z,99.90
2018-07-17T05:08:29.119Z,99.90
2018-07-17T05:10:57.605Z,99.90
2018-07-17T05:13:26.099Z,99.90
2018-07-17T05:15:54.485Z,99.90
2018-07-17T05:18:22.890Z,99.90
2018-07-17T05:23:19.879Z,99.90
2018-07-17T05:25:48.336Z,99.90
2018-07-17T05:28:16.830Z,99.90
2018-07-17T05:30:46.336Z,99.90
2018-07-17T05:33:15.436Z,99.90
2018-07-17T05:35:46.300Z,99.90
2018-07-17T05:38:15.568Z,99.90
2018-07-17T05:41:59.039Z,99.90
2018-07-17T05:44:27.865Z,99.90
2018-07-17T05:46:57.042Z,99.90
2018-07-17T05:49:26.528Z,99.90
2018-07-17T05:58:45.486Z,99.90
2018-07-17T06:33:39.348Z,99.90
2018-07-17T06:36:18.960Z,99.90
2018-07-17T06:39:00.698Z,99.90
2018-07-17T06:57:21.681Z,99.90
2018-07-17T07:00:03.245Z,99.90
2018-07-17T07:15:28.879Z,99.90
2018-07-17T07:18:06.165Z,99.90
2018-07-17T07:23:48.536Z,99.90
2018-07-17T07:26:21.270Z,99.90
2018-07-17T07:36:16.221Z,99.90
2018-07-17T07:38:46.283Z,99.90
2018-07-17T07:41:15.372Z,99.90
2018-07-17T07:43:44.334Z,99.90
2018-07-17T07:46:15.397Z,99.90
2018-07-17T07:48:50.822Z,99.90
2018-07-17T07:51:19.477Z,99.90
2018-07-17T07:53:48.093Z,99.90
2018-07-17T07:56:24.385Z,99.90
2018-07-17T07:58:53.734Z,99.90
2018-07-17T08:01:22.179Z,99.90
2018-07-17T08:03:50.729Z,99.90
2018-07-17T08:06:19.345Z,99.90
2018-07-17T08:08:47.834Z,99.90
2018-07-17T08:16:12.438Z,99.90
2018-07-17T08:18:41.038Z,99.90
2018-07-17T08:23:37.488Z,99.90
2018-07-17T08:28:35.439Z,99.90
2018-07-17T08:31:03.851Z,99.90
2018-07-17T08:33:32.470Z,99.90
2018-07-17T08:36:00.884Z,99.90
2018-07-17T08:38:29.390Z,99.90
2018-07-17T08:40:57.937Z,99.90
2018-07-17T08:43:29.129Z,99.90
2018-07-17T08:46:02.455Z,99.90
2018-07-17T08:56:10.616Z,99.90
2018-07-17T08:58:40.121Z,99.90
2018-07-17T09:01:10.374Z,99.90
2018-07-17T09:03:54.901Z,99.90
2018-07-17T09:09:22.817Z,99.90
2018-07-17T09:17:19.159Z,99.90
2018-07-17T09:23:03.851Z,99.90
2018-07-17T09:40:44.053Z,99.80
2018-07-17T09:56:17.781Z,99.90
2018-07-17T09:58:49.818Z,98.20
2018-07-17T10:08:00.961Z,94.90
2018-07-17T10:13:37.496Z,94.00
2018-07-17T10:16:14.377Z,94.20
2018-07-17T10:18:43.476Z,93.70
2018-07-17T10:21:13.847Z,93.60
2018-07-17T10:23:43.278Z,94.40
2018-07-17T10:26:16.801Z,94.10
2018-07-17T10:28:46.653Z,94.00
2018-07-17T10:31:15.952Z,95.10
2018-07-17T10:36:40.699Z,95.50
2018-07-17T10:44:17.108Z,95.90
2018-07-17T10:46:46.235Z,95.30
2018-07-17T10:49:15.258Z,93.60
2018-07-17T10:51:49.416Z,93.70
2018-07-17T10:54:18.539Z,94.00
2018-07-17T10:57:20.184Z,93.30
2018-07-17T11:00:17.121Z,93.40
2018-07-17T11:18:25.643Z,91.20
2018-07-17T11:20:59.128Z,91.10
2018-07-17T11:23:27.802Z,89.30
2018-07-17T11:26:01.948Z,89.70
2018-07-17T11:28:41.408Z,89.00
2018-07-17T11:39:05.925Z,83.30
2018-07-17T11:51:35.525Z,77.20
2018-07-17T11:54:06.464Z,77.60
2018-07-17T11:56:49.592Z,77.20
2018-07-17T11:59:19.843Z,75.90
2018-07-17T12:01:51.608Z,77.70
2018-07-17T12:14:37.136Z,74.90
2018-07-17T12:17:06.307Z,75.40
2018-07-17T12:19:35.273Z,73.00
2018-07-17T12:22:04.322Z,72.90
2018-07-17T12:24:56.723Z,72.90
2018-07-17T12:37:47.404Z,76.80
2018-07-17T12:45:24.099Z,74.90
2018-07-17T12:47:55.527Z,74.30
2018-07-17T12:55:46.089Z,74.60
2018-07-17T12:58:22.009Z,74.20
2018-07-17T13:00:51.031Z,74.20
2018-07-17T13:03:32.923Z,72.20
2018-07-17T13:06:23.128Z,73.30
2018-07-17T13:08:56.664Z,74.40
2018-07-17T13:11:52.900Z,75.50
2018-07-17T13:14:29.039Z,74.30
2018-07-17T13:42:57.273Z,76.30
2018-07-17T13:56:36.864Z,74.00
2018-07-17T14:04:39.544Z,72.80
2018-07-17T14:07:09.811Z,72.00
2018-07-17T15:10:23.899Z,71.70
2018-07-17T15:12:54.352Z,73.40
2018-07-17T15:15:45.797Z,72.90
2018-07-17T15:18:15.261Z,73.10
2018-07-17T15:35:33.758Z,72.70
2018-07-17T15:38:14.879Z,72.70
2018-07-17T15:45:16.776Z,73.80
